Time;durP1;ratioP1;P1;durP2;ratioP2;P2;SDS_P1;SDS_P2;PMS_P1;PMS_P2;Temp;Humidity;BMP_temperature;BMP_pressure;BME280_temperature;BME280_humidity;BME280_pressure;Samples;Min_cycle;Max_cycle;Signal;HPM_P1;HPM_P2
2023/11/15 00:04:47;;;;;;;30.42;5.32;;;10.10;99.90;;;;;;20721695;28;20650;-43
2023/11/15 00:14:48;;;;;;;13.50;4.72;;;10.30;99.90;;;;;;20732815;28;20041;-43
2023/11/15 00:24:48;;;;;;;15.80;4.05;;;10.50;99.90;;;;;;20736612;28;20180;-43
2023/11/15 00:34:49;;;;;;;23.13;4.60;;;10.60;99.90;;;;;;20735210;28;20124;-43
2023/11/15 00:44:49;;;;;;;17.98;5.15;;;10.60;99.90;;;;;;20733622;28;20129;-43
2023/11/15 00:54:50;;;;;;;10.23;2.95;;;10.60;99.90;;;;;;20736506;28;20460;-43
2023/11/15 01:04:50;;;;;;;10.63;2.90;;;10.60;99.90;;;;;;20734352;28;20060;-43
2023/11/15 01:14:52;;;;;;;9.68;2.58;;;10.60;99.90;;;;;;20737323;28;20061;-43
2023/11/15 01:24:52;;;;;;;13.40;3.70;;;10.60;99.90;;;;;;20724974;28;20106;-42
2023/11/15 01:34:53;;;;;;;19.05;3.47;;;10.50;99.90;;;;;;20732235;28;20042;-43
2023/11/15 01:44:53;;;;;;;22.25;3.60;;;10.50;99.90;;;;;;20729050;28;20144;-42
2023/11/15 01:54:56;;;;;;;13.38;4.03;;;10.60;99.90;;;;;;20723475;28;20048;-43
2023/11/15 02:04:57;;;;;;;19.35;4.20;;;10.60;99.90;;;;;;20731033;28;20160;-43
2023/11/15 02:14:58;;;;;;;20.33;3.33;;;10.60;99.90;;;;;;20726825;28;20548;-42
2023/11/15 02:24:59;;;;;;;24.73;4.10;;;10.60;99.90;;;;;;20724872;28;20048;-43
2023/11/15 02:35:00;;;;;;;14.77;3.40;;;10.70;99.90;;;;;;20726017;28;20038;-43
2023/11/15 02:45:01;;;;;;;13.63;2.63;;;10.70;99.90;;;;;;20725515;28;20478;-42
2023/11/15 02:55:03;;;;;;;17.10;3.17;;;10.70;99.90;;;;;;20729943;28;20504;-43
2023/11/15 03:05:05;;;;;;;14.10;3.00;;;10.90;99.90;;;;;;20721419;28;20053;-42
2023/11/15 03:15:07;;;;;;;19.80;2.97;;;10.80;99.90;;;;;;20715666;28;20038;-43
2023/11/15 03:25:07;;;;;;;14.75;2.42;;;10.80;99.90;;;;;;20718653;28;20080;-42
2023/11/15 03:35:08;;;;;;;15.70;2.60;;;10.80;99.90;;;;;;20725778;28;20045;-42
2023/11/15 03:45:12;;;;;;;18.15;2.80;;;10.80;99.90;;;;;;20724583;28;20048;-43
2023/11/15 03:55:13;;;;;;;14.30;2.45;;;10.80;99.90;;;;;;20726743;28;20458;-43
2023/11/15 04:05:16;;;;;;;18.67;2.67;;;10.70;99.90;;;;;;20725274;28;20442;-42
2023/11/15 04:15:17;;;;;;;17.20;3.13;;;10.80;99.90;;;;;;20718612;28;20464;-42
2023/11/15 04:25:17;;;;;;;11.48;2.25;;;10.80;99.90;;;;;;20720771;28;20061;-42
2023/11/15 04:35:18;;;;;;;13.10;2.28;;;10.80;99.90;;;;;;20729274;28;20037;-43
2023/11/15 04:45:19;;;;;;;16.67;3.10;;;10.90;99.90;;;;;;20736015;28;20534;-43
2023/11/15 04:55:20;;;;;;;13.30;3.13;;;10.90;99.90;;;;;;20743878;28;20045;-43
2023/11/15 05:05:20;;;;;;;10.25;2.22;;;10.90;99.90;;;;;;20739243;28;20053;-42
2023/11/15 05:15:21;;;;;;;16.50;4.55;;;10.80;99.90;;;;;;20733850;28;20181;-43
2023/11/15 05:25:23;;;;;;;13.63;2.50;;;10.80;99.90;;;;;;20728920;28;20092;-43
2023/11/15 05:35:23;;;;;;;13.00;2.53;;;10.90;99.90;;;;;;20734999;28;20068;-42
2023/11/15 05:45:25;;;;;;;11.35;2.45;;;10.70;99.90;;;;;;20734064;28;20073;-42
2023/11/15 05:55:26;;;;;;;17.15;3.10;;;10.70;99.90;;;;;;20729021;28;20045;-42
2023/11/15 06:05:26;;;;;;;8.63;2.40;;;10.70;99.90;;;;;;20734537;28;20069;-42
2023/11/15 06:15:27;;;;;;;13.00;2.65;;;10.60;99.90;;;;;;20733376;28;20243;-43
2023/11/15 06:25:27;;;;;;;13.43;3.03;;;10.60;99.90;;;;;;20732375;28;20136;-42
2023/11/15 06:35:28;;;;;;;16.45;2.38;;;10.60;99.90;;;;;;20726958;28;20611;-43
2023/11/15 06:45:29;;;;;;;8.73;1.95;;;10.60;99.90;;;;;;20729918;28;20159;-42
2023/11/15 06:55:29;;;;;;;12.02;2.40;;;10.60;99.90;;;;;;20721129;28;20399;-43
2023/11/15 07:05:31;;;;;;;12.25;2.25;;;10.50;99.90;;;;;;20726063;28;20218;-43
2023/11/15 07:15:31;;;;;;;14.27;2.08;;;10.30;99.90;;;;;;20723923;28;20517;-42
2023/11/15 07:25:33;;;;;;;14.52;2.35;;;10.30;99.90;;;;;;20737597;28;20557;-43
2023/11/15 07:35:36;;;;;;;13.98;2.58;;;10.30;99.90;;;;;;20733019;28;20353;-42
2023/11/15 07:45:38;;;;;;;18.70;5.18;;;10.50;99.90;;;;;;20743154;28;20084;-43
2023/11/15 07:55:39;;;;;;;13.73;3.00;;;10.50;99.90;;;;;;20740557;28;20042;-42
2023/11/15 08:05:40;;;;;;;17.67;4.70;;;10.60;99.90;;;;;;20736207;28;20043;-43
2023/11/15 08:15:42;;;;;;;11.93;2.13;;;10.60;99.90;;;;;;20754796;28;20852;-43
2023/11/15 08:25:48;;;;;;;11.60;2.50;;;10.50;99.90;;;;;;20755424;28;20033;-42
2023/11/15 08:35:48;;;;;;;9.88;1.88;;;10.80;99.90;;;;;;20745704;28;20036;-43
2023/11/15 08:45:49;;;;;;;11.45;1.95;;;11.10;99.90;;;;;;20748767;28;20332;-43
2023/11/15 08:55:49;;;;;;;16.45;2.30;;;11.30;99.90;;;;;;20748462;28;20071;-43
2023/11/15 09:05:51;;;;;;;14.85;1.73;;;11.50;99.90;;;;;;20734057;28;20073;-43
2023/11/15 09:15:52;;;;;;;14.57;2.13;;;11.70;99.90;;;;;;20748308;28;20052;-42
2023/11/15 09:25:53;;;;;;;11.02;1.55;;;11.90;99.90;;;;;;20746094;28;20076;-42
2023/11/15 09:35:54;;;;;;;14.93;1.83;;;12.00;99.90;;;;;;20742582;28;20469;-43
2023/11/15 09:45:58;;;;;;;10.85;1.65;;;12.10;99.90;;;;;;20750483;28;20094;-43
2023/11/15 09:55:59;;;;;;;8.68;1.58;;;12.50;97.70;;;;;;20748400;28;20065;-43
2023/11/15 10:06:00;;;;;;;12.23;1.75;;;12.70;56.30;;;;;;20742131;28;20393;-43
2023/11/15 10:16:02;;;;;;;18.70;2.03;;;12.80;62.30;;;;;;20741866;28;20041;-42
2023/11/15 10:26:03;;;;;;;12.13;1.85;;;12.90;55.80;;;;;;20740480;28;20077;-43
2023/11/15 10:36:23;;;;;;;16.58;1.90;;;13.00;53.10;;;;;;20737279;28;20213;-43
2023/11/15 10:46:30;;;;;;;9.57;1.70;;;13.30;36.90;;;;;;20739334;28;20389;-43
2023/11/15 10:56:31;;;;;;;16.87;2.23;;;13.20;7.80;;;;;;20737940;28;20049;-43
2023/11/15 11:07:02;;;;;;;15.98;2.35;;;13.10;3.70;;;;;;20744393;28;20127;-42
2023/11/15 11:17:33;;;;;;;9.18;1.65;;;12.70;5.40;;;;;;20740692;28;20061;-42
2023/11/15 11:27:36;;;;;;;8.25;1.48;;;12.60;8.20;;;;;;20724568;28;20049;-42
2023/11/15 11:37:50;;;;;;;14.82;1.88;;;12.50;2.20;;;;;;20732293;28;20123;-43
2023/11/15 11:47:51;;;;;;;9.88;1.88;;;12.60;1.60;;;;;;20748070;28;20037;-43
2023/11/15 11:57:52;;;;;;;13.55;2.60;;;13.40;2.10;;;;;;20756336;28;20562;-42
2023/11/15 12:07:56;;;;;;;8.93;1.30;;;14.10;1.00;;;;;;20749161;28;20041;-43
2023/11/15 12:17:58;;;;;;;12.63;1.77;;;13.70;1.00;;;;;;20745487;28;20049;-42
2023/11/15 12:28:03;;;;;;;10.70;1.40;;;13.80;1.00;;;;;;20748621;28;20126;-42
2023/11/15 12:38:05;;;;;;;10.13;1.70;;;14.10;1.00;;;;;;20727795;28;20573;-42
2023/11/15 12:48:07;;;;;;;9.10;1.80;;;13.40;1.00;;;;;;20741313;28;20041;-43
2023/11/15 12:58:08;;;;;;;11.52;2.75;;;12.80;1.00;;;;;;20743864;28;20513;-42
2023/11/15 13:08:09;;;;;;;11.93;1.77;;;13.00;1.00;;;;;;20747829;28;20057;-42
2023/11/15 13:18:11;;;;;;;7.93;1.20;;;12.70;1.00;;;;;;20743370;28;20033;-42
2023/11/15 13:28:12;;;;;;;7.90;1.40;;;12.60;1.00;;;;;;20740834;28;20075;-42
2023/11/15 13:38:12;;;;;;;8.75;1.52;;;12.80;1.00;;;;;;20741784;28;21372;-42
2023/11/15 13:48:13;;;;;;;12.75;1.42;;;12.60;1.00;;;;;;20739027;28;20045;-42
2023/11/15 13:58:13;;;;;;;9.52;1.45;;;12.10;1.00;;;;;;20735866;28;20054;-42
2023/11/15 14:08:14;;;;;;;12.10;1.70;;;12.00;1.00;;;;;;20722554;28;20121;-42
2023/11/15 14:18:15;;;;;;;8.13;1.50;;;12.30;1.00;;;;;;20733860;28;20490;-42
2023/11/15 14:28:16;;;;;;;10.82;1.83;;;12.20;1.00;;;;;;20737209;28;20206;-42
2023/11/15 14:38:16;;;;;;;10.32;1.45;;;12.00;1.00;;;;;;20739991;28;20041;-42
2023/11/15 14:48:17;;;;;;;11.93;1.98;;;12.00;1.00;;;;;;20741239;28;20099;-42
2023/11/15 14:58:18;;;;;;;11.95;1.38;;;11.90;1.00;;;;;;20732499;28;20339;-42
2023/11/15 15:08:21;;;;;;;12.40;1.70;;;11.70;1.00;;;;;;20700232;28;20045;-43
2023/11/15 15:18:21;;;;;;;12.32;1.60;;;11.50;1.00;;;;;;20728447;28;20484;-42
2023/11/15 15:28:22;;;;;;;9.02;1.50;;;11.60;1.00;;;;;;20727123;28;20084;-42
2023/11/15 15:38:23;;;;;;;10.25;1.40;;;11.60;1.00;;;;;;20726736;28;20038;-42
2023/11/15 15:48:24;;;;;;;9.07;1.30;;;11.50;1.00;;;;;;20731246;28;20073;-42
2023/11/15 15:58:24;;;;;;;11.75;1.92;;;11.70;1.00;;;;;;20729929;28;20053;-42
2023/11/15 16:08:26;;;;;;;10.32;1.30;;;11.60;1.00;;;;;;20694535;28;20582;-42
2023/11/15 16:18:26;;;;;;;12.50;1.50;;;11.50;1.00;;;;;;20729388;28;20050;-42
2023/11/15 16:28:27;;;;;;;15.13;1.55;;;11.60;1.00;;;;;;20728933;28;20501;-42
2023/11/15 16:38:27;;;;;;;10.50;1.50;;;11.60;1.00;;;;;;20742811;28;20421;-42
2023/11/15 16:48:28;;;;;;;11.80;1.60;;;11.50;1.00;;;;;;20737370;28;20052;-42
2023/11/15 16:58:30;;;;;;;10.50;1.88;;;11.20;1.00;;;;;;20743640;28;20049;-42
2023/11/15 17:08:31;;;;;;;12.27;1.73;;;11.10;1.00;;;;;;20748949;28;20121;-42
2023/11/15 17:18:32;;;;;;;10.40;2.08;;;11.00;8.40;;;;;;20751742;28;20073;-42
2023/11/15 17:28:33;;;;;;;11.85;2.63;;;10.80;18.80;;;;;;20745523;28;20130;-42
2023/11/15 17:38:33;;;;;;;8.45;1.83;;;10.90;27.20;;;;;;20718014;28;20041;-41
2023/11/15 17:48:36;;;;;;;12.73;2.30;;;10.80;41.40;;;;;;20733020;28;20065;-42
2023/11/15 17:58:37;;;;;;;10.80;2.45;;;10.80;50.50;;;;;;20721186;28;20050;-42
2023/11/15 18:08:39;;;;;;;13.00;2.13;;;10.70;52.50;;;;;;20729252;28;20478;-42
2023/11/15 18:18:40;;;;;;;16.90;1.88;;;10.90;27.00;;;;;;20725760;28;20361;-41
2023/11/15 18:28:41;;;;;;;9.15;1.90;;;10.90;22.70;;;;;;20732489;28;20037;-42
2023/11/15 18:38:42;;;;;;;13.20;2.22;;;10.80;19.00;;;;;;20733316;28;20501;-42
2023/11/15 18:48:42;;;;;;;7.18;1.80;;;10.90;7.50;;;;;;20739394;28;20493;-42
2023/11/15 18:58:45;;;;;;;10.25;2.88;;;10.80;12.60;;;;;;20735666;28;20050;-42
2023/11/15 19:08:46;;;;;;;9.45;1.73;;;10.70;7.30;;;;;;20737799;28;20037;-42
2023/11/15 19:18:46;;;;;;;10.93;1.90;;;10.90;1.00;;;;;;20729160;28;20155;-42
2023/11/15 19:28:47;;;;;;;9.93;1.92;;;10.90;1.00;;;;;;20738649;28;20060;-42
2023/11/15 19:38:48;;;;;;;6.07;1.42;;;11.10;1.00;;;;;;20735365;28;20042;-42
2023/11/15 19:48:49;;;;;;;8.75;1.95;;;11.10;1.00;;;;;;20740358;28;20109;-42
2023/11/15 19:58:49;;;;;;;5.82;1.20;;;11.20;1.00;;;;;;20744558;28;20041;-42
2023/11/15 20:08:50;;;;;;;7.90;1.57;;;11.10;1.00;;;;;;20749042;28;20474;-42
2023/11/15 20:18:50;;;;;;;9.45;1.50;;;11.00;1.00;;;;;;20754438;28;20460;-41
2023/11/15 20:28:51;;;;;;;5.72;1.42;;;11.00;1.00;;;;;;20751148;28;20026;-42
2023/11/15 20:38:52;;;;;;;8.48;1.83;;;11.10;1.00;;;;;;20748096;28;20046;-42
2023/11/15 20:48:53;;;;;;;8.93;1.70;;;11.00;1.00;;;;;;20744820;28;20161;-41
2023/11/15 20:58:54;;;;;;;6.82;1.27;;;11.10;1.00;;;;;;20728411;28;20061;-42
2023/11/15 21:08:54;;;;;;;5.82;1.33;;;11.10;1.00;;;;;;20736984;28;20561;-42
2023/11/15 21:18:55;;;;;;;8.43;1.60;;;10.90;1.00;;;;;;20745972;28;20049;-42
2023/11/15 21:28:58;;;;;;;10.13;1.50;;;11.00;1.00;;;;;;20751360;28;21085;-42
2023/11/15 21:38:59;;;;;;;11.27;2.42;;;11.10;1.00;;;;;;20747590;28;20049;-42
2023/11/15 21:49:00;;;;;;;7.97;1.88;;;11.00;1.00;;;;;;20745303;28;20084;-42
2023/11/15 21:59:00;;;;;;;5.22;1.50;;;11.00;1.00;;;;;;20747776;28;20053;-42
2023/11/15 22:09:04;;;;;;;9.85;1.90;;;11.00;1.00;;;;;;20746612;28;20056;-41
2023/11/15 22:19:05;;;;;;;7.50;2.88;;;10.90;1.00;;;;;;20740767;28;20523;-42
2023/11/15 22:29:05;;;;;;;8.65;1.38;;;11.00;1.00;;;;;;20728171;28;20053;-42
2023/11/15 22:39:06;;;;;;;7.20;1.48;;;10.90;1.00;;;;;;20741356;28;20045;-42
2023/11/15 22:49:06;;;;;;;8.43;1.30;;;10.80;1.00;;;;;;20736525;28;20401;-42
2023/11/15 22:59:07;;;;;;;11.57;1.40;;;10.90;1.00;;;;;;20727667;28;20347;-42
2023/11/15 23:09:10;;;;;;;10.70;1.90;;;10.80;1.00;;;;;;20729070;28;20486;-42
2023/11/15 23:19:15;;;;;;;5.68;1.50;;;10.80;1.00;;;;;;20723741;28;20124;-42
2023/11/15 23:29:16;;;;;;;13.55;3.15;;;10.90;1.00;;;;;;20727160;28;20034;-41
2023/11/15 23:39:17;;;;;;;8.73;1.50;;;10.90;1.00;;;;;;20713263;28;20065;-42
2023/11/15 23:49:18;;;;;;;9.85;1.52;;;10.80;1.00;;;;;;20740364;28;20036;-42
2023/11/15 23:59:20;;;;;;;10.02;3.10;;;10.80;1.00;;;;;;20734929;28;20485;-42
